sensor_id;sensor_type;location;lat;lon;timestamp;pressure;altitude;pressure_sealevel;temperature
23208;BMP180;11773;52.570;13.052;2023-04-01T00:01:50;99381.00;;;16.70
23208;BMP180;11773;52.570;13.052;2023-04-01T00:04:19;99378.00;;;16.70
23208;BMP180;11773;52.570;13.052;2023-04-01T00:06:49;99394.00;;;16.70
23208;BMP180;11773;52.570;13.052;2023-04-01T00:09:19;99376.00;;;16.70
23208;BMP180;11773;52.570;13.052;2023-04-01T00:11:49;99381.00;;;16.70
23208;BMP180;11773;52.570;13.052;2023-04-01T00:14:18;99380.00;;;16.70
23208;BMP180;11773;52.570;13.052;2023-04-01T00:16:48;99373.00;;;16.70
23208;BMP180;11773;52.570;13.052;2023-04-01T00:19:18;99376.00;;;16.70
23208;BMP180;11773;52.570;13.052;2023-04-01T00:21:48;99387.00;;;16.70
23208;BMP180;11773;52.570;13.052;2023-04-01T00:24:17;99388.00;;;16.70
23208;BMP180;11773;52.570;13.052;2023-04-01T00:26:47;99379.00;;;16.60
23208;BMP180;11773;52.570;13.052;2023-04-01T00:29:17;99379.00;;;16.60
23208;BMP180;11773;52.570;13.052;2023-04-01T00:31:46;99386.00;;;16.60
23208;BMP180;11773;52.570;13.052;2023-04-01T00:34:17;99378.00;;;16.60
23208;BMP180;11773;52.570;13.052;2023-04-01T00:36:47;99385.00;;;16.60
23208;BMP180;11773;52.570;13.052;2023-04-01T00:39:17;99381.00;;;16.60
23208;BMP180;11773;52.570;13.052;2023-04-01T00:41:47;99386.00;;;16.60
23208;BMP180;11773;52.570;13.052;2023-04-01T00:44:32;99381.00;;;16.60
23208;BMP180;11773;52.570;13.052;2023-04-01T00:47:02;99388.00;;;16.60
23208;BMP180;11773;52.570;13.052;2023-04-01T00:49:36;99388.00;;;16.60
23208;BMP180;11773;52.570;13.052;2023-04-01T00:52:10;99385.00;;;16.60
23208;BMP180;11773;52.570;13.052;2023-04-01T00:54:44;99379.00;;;16.60
23208;BMP180;11773;52.570;13.052;2023-04-01T00:57:23;99382.00;;;16.50
23208;BMP180;11773;52.570;13.052;2023-04-01T00:59:52;99382.00;;;16.50
23208;BMP180;11773;52.570;13.052;2023-04-01T01:02:23;99386.00;;;16.50
23208;BMP180;11773;52.570;13.052;2023-04-01T01:04:53;99376.00;;;16.50
23208;BMP180;11773;52.570;13.052;2023-04-01T01:08:00;99381.00;;;16.50
23208;BMP180;11773;52.570;13.052;2023-04-01T01:10:35;99384.00;;;16.40
23208;BMP180;11773;52.570;13.052;2023-04-01T01:13:40;99382.00;;;16.40
23208;BMP180;11773;52.570;13.052;2023-04-01T01:16:28;99394.00;;;16.40
23208;BMP180;11773;52.570;13.052;2023-04-01T01:19:32;99380.00;;;16.40
23208;BMP180;11773;52.570;13.052;2023-04-01T01:22:14;99385.00;;;16.30
23208;BMP180;11773;52.570;13.052;2023-04-01T01:25:00;99382.00;;;16.30
23208;BMP180;11773;52.570;13.052;2023-04-01T01:27:27;99395.00;;;16.30
23208;BMP180;11773;52.570;13.052;2023-04-01T01:32:53;99401.00;;;16.30
23208;BMP180;11773;52.570;13.052;2023-04-01T01:38:14;99396.00;;;16.30
23208;BMP180;11773;52.570;13.052;2023-04-01T01:40:48;99389.00;;;16.30
23208;BMP180;11773;52.570;13.052;2023-04-01T01:43:28;99385.00;;;16.30
23208;BMP180;11773;52.570;13.052;2023-04-01T01:46:01;99396.00;;;16.30
23208;BMP180;11773;52.570;13.052;2023-04-01T01:48:34;99397.00;;;16.30
23208;BMP180;11773;52.570;13.052;2023-04-01T01:51:06;99396.00;;;16.30
23208;BMP180;11773;52.570;13.052;2023-04-01T01:53:36;99398.00;;;16.30
23208;BMP180;11773;52.570;13.052;2023-04-01T01:56:06;99398.00;;;16.30
23208;BMP180;11773;52.570;13.052;2023-04-01T01:59:00;99403.00;;;16.30
23208;BMP180;11773;52.570;13.052;2023-04-01T02:01:35;99389.00;;;16.30
23208;BMP180;11773;52.570;13.052;2023-04-01T02:04:05;99386.00;;;16.30
23208;BMP180;11773;52.570;13.052;2023-04-01T02:06:38;99381.00;;;16.30
23208;BMP180;11773;52.570;13.052;2023-04-01T02:09:11;99387.00;;;16.30
23208;BMP180;11773;52.570;13.052;2023-04-01T02:12:03;99390.00;;;16.30
23208;BMP180;11773;52.570;13.052;2023-04-01T02:14:45;99400.00;;;16.30
23208;BMP180;11773;52.570;13.052;2023-04-01T02:17:22;99389.00;;;16.20
23208;BMP180;11773;52.570;13.052;2023-04-01T02:20:14;99397.00;;;16.20
23208;BMP180;11773;52.570;13.052;2023-04-01T02:22:43;99395.00;;;16.20
23208;BMP180;11773;52.570;13.052;2023-04-01T02:25:18;99399.00;;;16.20
23208;BMP180;11773;52.570;13.052;2023-04-01T02:27:47;99401.00;;;16.20
23208;BMP180;11773;52.570;13.052;2023-04-01T02:30:18;99401.00;;;16.20
23208;BMP180;11773;52.570;13.052;2023-04-01T02:32:49;99409.00;;;16.20
23208;BMP180;11773;52.570;13.052;2023-04-01T02:35:19;99421.00;;;16.20
23208;BMP180;11773;52.570;13.052;2023-04-01T02:37:51;99420.00;;;16.20
23208;BMP180;11773;52.570;13.052;2023-04-01T02:40:21;99414.00;;;16.20
23208;BMP180;11773;52.570;13.052;2023-04-01T02:42:51;99409.00;;;16.20
23208;BMP180;11773;52.570;13.052;2023-04-01T02:45:21;99411.00;;;16.20
23208;BMP180;11773;52.570;13.052;2023-04-01T02:47:50;99408.00;;;16.20
23208;BMP180;11773;52.570;13.052;2023-04-01T02:50:20;99412.00;;;16.20
23208;BMP180;11773;52.570;13.052;2023-04-01T02:52:50;99421.00;;;16.20
23208;BMP180;11773;52.570;13.052;2023-04-01T02:55:19;99412.00;;;16.20
23208;BMP180;11773;52.570;13.052;2023-04-01T02:57:49;99414.00;;;16.20
23208;BMP180;11773;52.570;13.052;2023-04-01T03:00:18;99419.00;;;16.20
23208;BMP180;11773;52.570;13.052;2023-04-01T03:02:48;99417.00;;;16.20
23208;BMP180;11773;52.570;13.052;2023-04-01T03:05:17;99418.00;;;16.20
23208;BMP180;11773;52.570;13.052;2023-04-01T03:07:47;99436.00;;;16.20
23208;BMP180;11773;52.570;13.052;2023-04-01T03:10:17;99434.00;;;16.20
23208;BMP180;11773;52.570;13.052;2023-04-01T03:12:47;99422.00;;;16.20
23208;BMP180;11773;52.570;13.052;2023-04-01T03:15:17;99428.00;;;16.20
23208;BMP180;11773;52.570;13.052;2023-04-01T03:17:46;99439.00;;;16.20
23208;BMP180;11773;52.570;13.052;2023-04-01T03:20:16;99426.00;;;16.20
23208;BMP180;11773;52.570;13.052;2023-04-01T03:22:45;99437.00;;;16.20
23208;BMP180;11773;52.570;13.052;2023-04-01T03:25:15;99437.00;;;16.20
23208;BMP180;11773;52.570;13.052;2023-04-01T03:27:44;99432.00;;;16.20
23208;BMP180;11773;52.570;13.052;2023-04-01T03:30:14;99437.00;;;16.20
23208;BMP180;11773;52.570;13.052;2023-04-01T03:32:43;99436.00;;;16.20
23208;BMP180;11773;52.570;13.052;2023-04-01T03:35:13;99438.00;;;16.20
23208;BMP180;11773;52.570;13.052;2023-04-01T03:37:42;99450.00;;;16.20
23208;BMP180;11773;52.570;13.052;2023-04-01T03:40:13;99432.00;;;16.20
23208;BMP180;11773;52.570;13.052;2023-04-01T03:42:42;99437.00;;;16.20
23208;BMP180;11773;52.570;13.052;2023-04-01T03:45:12;99441.00;;;16.20
23208;BMP180;11773;52.570;13.052;2023-04-01T03:47:42;99443.00;;;16.20
23208;BMP180;11773;52.570;13.052;2023-04-01T03:50:11;99442.00;;;16.20
23208;BMP180;11773;52.570;13.052;2023-04-01T03:52:41;99459.00;;;16.20
23208;BMP180;11773;52.570;13.052;2023-04-01T03:55:10;99460.00;;;16.20
23208;BMP180;11773;52.570;13.052;2023-04-01T03:57:40;99448.00;;;16.20
23208;BMP180;11773;52.570;13.052;2023-04-01T04:00:10;99442.00;;;16.20
23208;BMP180;11773;52.570;13.052;2023-04-01T04:02:40;99452.00;;;16.20
23208;BMP180;11773;52.570;13.052;2023-04-01T04:05:09;99451.00;;;16.20
23208;BMP180;11773;52.570;13.052;2023-04-01T04:07:39;99454.00;;;16.10
23208;BMP180;11773;52.570;13.052;2023-04-01T04:10:08;99460.00;;;16.10
23208;BMP180;11773;52.570;13.052;2023-04-01T04:12:38;99471.00;;;16.10
23208;BMP180;11773;52.570;13.052;2023-04-01T04:15:09;99469.00;;;16.10
23208;BMP180;11773;52.570;13.052;2023-04-01T04:17:38;99461.00;;;16.10
23208;BMP180;11773;52.570;13.052;2023-04-01T04:20:09;99466.00;;;16.10
23208;BMP180;11773;52.570;13.052;2023-04-01T04:22:38;99469.00;;;16.10
23208;BMP180;11773;52.570;13.052;2023-04-01T04:25:09;99462.00;;;16.10
23208;BMP180;11773;52.570;13.052;2023-04-01T04:27:39;99484.00;;;16.10
23208;BMP180;11773;52.570;13.052;2023-04-01T04:30:09;99485.00;;;16.10
23208;BMP180;11773;52.570;13.052;2023-04-01T04:32:39;99469.00;;;16.10
23208;BMP180;11773;52.570;13.052;2023-04-01T04:35:10;99474.00;;;16.10
23208;BMP180;11773;52.570;13.052;2023-04-01T04:37:40;99468.00;;;16.10
23208;BMP180;11773;52.570;13.052;2023-04-01T04:40:10;99469.00;;;16.10
23208;BMP180;11773;52.570;13.052;2023-04-01T04:42:39;99478.00;;;16.10
23208;BMP180;11773;52.570;13.052;2023-04-01T04:45:09;99476.00;;;16.10
23208;BMP180;11773;52.570;13.052;2023-04-01T04:47:40;99486.00;;;16.10
23208;BMP180;11773;52.570;13.052;2023-04-01T04:50:10;99478.00;;;16.10
23208;BMP180;11773;52.570;13.052;2023-04-01T04:52:40;99481.00;;;16.10
23208;BMP180;11773;52.570;13.052;2023-04-01T04:55:09;99491.00;;;16.10
23208;BMP180;11773;52.570;13.052;2023-04-01T04:57:39;99488.00;;;16.10
23208;BMP180;11773;52.570;13.052;2023-04-01T05:00:09;99487.00;;;16.10
23208;BMP180;11773;52.570;13.052;2023-04-01T05:02:39;99488.00;;;16.10
23208;BMP180;11773;52.570;13.052;2023-04-01T05:05:09;99494.00;;;16.20
23208;BMP180;11773;52.570;13.052;2023-04-01T05:07:39;99489.00;;;16.10
23208;BMP180;11773;52.570;13.052;2023-04-01T05:10:09;99506.00;;;16.20
23208;BMP180;11773;52.570;13.052;2023-04-01T05:12:38;99493.00;;;16.20
23208;BMP180;11773;52.570;13.052;2023-04-01T05:15:09;99495.00;;;16.20
23208;BMP180;11773;52.570;13.052;2023-04-01T05:17:39;99497.00;;;16.20
23208;BMP180;11773;52.570;13.052;2023-04-01T05:20:09;99503.00;;;16.20
23208;BMP180;11773;52.570;13.052;2023-04-01T05:22:39;99497.00;;;16.20
23208;BMP180;11773;52.570;13.052;2023-04-01T05:25:09;99497.00;;;16.20
23208;BMP180;11773;52.570;13.052;2023-04-01T05:27:38;99501.00;;;16.20
23208;BMP180;11773;52.570;13.052;2023-04-01T05:30:08;99516.00;;;16.20
23208;BMP180;11773;52.570;13.052;2023-04-01T05:32:38;99506.00;;;16.20
23208;BMP180;11773;52.570;13.052;2023-04-01T05:35:08;99506.00;;;16.20
23208;BMP180;11773;52.570;13.052;2023-04-01T05:37:38;99516.00;;;16.20
23208;BMP180;11773;52.570;13.052;2023-04-01T05:40:08;99514.00;;;16.20
23208;BMP180;11773;52.570;13.052;2023-04-01T05:42:38;99512.00;;;16.20
23208;BMP180;11773;52.570;13.052;2023-04-01T05:45:09;99515.00;;;16.20
23208;BMP180;11773;52.570;13.052;2023-04-01T05:47:39;99517.00;;;16.20
23208;BMP180;11773;52.570;13.052;2023-04-01T05:50:09;99525.00;;;16.20
23208;BMP180;11773;52.570;13.052;2023-04-01T05:52:40;99524.00;;;16.20
23208;BMP180;11773;52.570;13.052;2023-04-01T05:55:10;99524.00;;;16.20
23208;BMP180;11773;52.570;13.052;2023-04-01T05:57:39;99541.00;;;16.30
23208;BMP180;11773;52.570;13.052;2023-04-01T06:00:10;99535.00;;;16.30
23208;BMP180;11773;52.570;13.052;2023-04-01T06:02:40;99533.00;;;16.30
23208;BMP180;11773;52.570;13.052;2023-04-01T06:05:30;99540.00;;;16.30
23208;BMP180;11773;52.570;13.052;2023-04-01T06:08:09;99534.00;;;16.30
23208;BMP180;11773;52.570;13.052;2023-04-01T06:10:47;99537.00;;;16.30
23208;BMP180;11773;52.570;13.052;2023-04-01T06:13:51;99546.00;;;16.30
23208;BMP180;11773;52.570;13.052;2023-04-01T06:16:39;99542.00;;;16.20
23208;BMP180;11773;52.570;13.052;2023-04-01T06:19:24;99557.00;;;16.20
23208;BMP180;11773;52.570;13.052;2023-04-01T06:22:05;99563.00;;;16.30
23208;BMP180;11773;52.570;13.052;2023-04-01T06:25:04;99556.00;;;16.30
23208;BMP180;11773;52.570;13.052;2023-04-01T06:28:17;99547.00;;;16.30
23208;BMP180;11773;52.570;13.052;2023-04-01T06:40:12;99571.00;;;16.20
23208;BMP180;11773;52.570;13.052;2023-04-01T06:45:57;99573.00;;;16.30
23208;BMP180;11773;52.570;13.052;2023-04-01T06:51:59;99564.00;;;16.30
23208;BMP180;11773;52.570;13.052;2023-04-01T06:54:46;99569.00;;;16.30
23208;BMP180;11773;52.570;13.052;2023-04-01T06:57:28;99571.00;;;16.40
23208;BMP180;11773;52.570;13.052;2023-04-01T06:59:58;99575.00;;;16.40
23208;BMP180;11773;52.570;13.052;2023-04-01T07:02:50;99586.00;;;16.40
23208;BMP180;11773;52.570;13.052;2023-04-01T07:05:15;99583.00;;;16.50
23208;BMP180;11773;52.570;13.052;2023-04-01T07:07:52;99582.00;;;16.60
23208;BMP180;11773;52.570;13.052;2023-04-01T07:10:32;99597.00;;;16.60
23208;BMP180;11773;52.570;13.052;2023-04-01T07:13:04;99580.00;;;16.60
23208;BMP180;11773;52.570;13.052;2023-04-01T07:15:37;99584.00;;;16.70
23208;BMP180;11773;52.570;13.052;2023-04-01T07:18:12;99591.00;;;16.70
23208;BMP180;11773;52.570;13.052;2023-04-01T07:20:43;99597.00;;;16.70
23208;BMP180;11773;52.570;13.052;2023-04-01T07:23:31;99593.00;;;16.70
23208;BMP180;11773;52.570;13.052;2023-04-01T07:26:23;99601.00;;;16.70
23208;BMP180;11773;52.570;13.052;2023-04-01T07:28:54;99591.00;;;16.70
23208;BMP180;11773;52.570;13.052;2023-04-01T07:31:40;99605.00;;;16.70
23208;BMP180;11773;52.570;13.052;2023-04-01T07:34:16;99602.00;;;16.70
23208;BMP180;11773;52.570;13.052;2023-04-01T07:37:12;99602.00;;;16.70
23208;BMP180;11773;52.570;13.052;2023-04-01T07:43:35;99597.00;;;16.70
23208;BMP180;11773;52.570;13.052;2023-04-01T07:45:47;99610.00;;;16.70
23208;BMP180;11773;52.570;13.052;2023-04-01T07:48:33;99602.00;;;16.70
23208;BMP180;11773;52.570;13.052;2023-04-01T07:59:48;99620.00;;;16.80
23208;BMP180;11773;52.570;13.052;2023-04-01T08:02:25;99613.00;;;16.90
23208;BMP180;11773;52.570;13.052;2023-04-01T08:05:17;99617.00;;;16.90
23208;BMP180;11773;52.570;13.052;2023-04-01T08:10:49;99639.00;;;16.90
23208;BMP180;11773;52.570;13.052;2023-04-01T08:13:53;99614.00;;;17.00
23208;BMP180;11773;52.570;13.052;2023-04-01T08:16:35;99621.00;;;17.00
23208;BMP180;11773;52.570;13.052;2023-04-01T08:19:26;99628.00;;;17.00
23208;BMP180;11773;52.570;13.052;2023-04-01T08:21:56;99627.00;;;17.00
23208;BMP180;11773;52.570;13.052;2023-04-01T08:24:42;99636.00;;;17.00
23208;BMP180;11773;52.570;13.052;2023-04-01T08:27:36;99641.00;;;17.00
23208;BMP180;11773;52.570;13.052;2023-04-01T08:30:21;99635.00;;;17.00
23208;BMP180;11773;52.570;13.052;2023-04-01T08:33:05;99655.00;;;17.00
23208;BMP180;11773;52.570;13.052;2023-04-01T08:35:59;99640.00;;;16.90
23208;BMP180;11773;52.570;13.052;2023-04-01T08:38:53;99652.00;;;16.90
23208;BMP180;11773;52.570;13.052;2023-04-01T08:44:53;99666.00;;;16.80
23208;BMP180;11773;52.570;13.052;2023-04-01T08:56:55;99669.00;;;16.50
23208;BMP180;11773;52.570;13.052;2023-04-01T09:02:47;99667.00;;;16.50
23208;BMP180;11773;52.570;13.052;2023-04-01T09:09:17;99679.00;;;16.30
23208;BMP180;11773;52.570;13.052;2023-04-01T09:15:24;99682.00;;;16.20
23208;BMP180;11773;52.570;13.052;2023-04-01T09:21:40;99677.00;;;16.00
23208;BMP180;11773;52.570;13.052;2023-04-01T09:24:30;99685.00;;;16.00
23208;BMP180;11773;52.570;13.052;2023-04-01T09:27:19;99692.00;;;16.00
23208;BMP180;11773;52.570;13.052;2023-04-01T09:30:13;99693.00;;;16.00
23208;BMP180;11773;52.570;13.052;2023-04-01T09:33:27;99692.00;;;16.00
23208;BMP180;11773;52.570;13.052;2023-04-01T09:39:23;99694.00;;;15.70
23208;BMP180;11773;52.570;13.052;2023-04-01T09:44:54;99710.00;;;15.70
23208;BMP180;11773;52.570;13.052;2023-04-01T09:50:52;99712.00;;;15.60
23208;BMP180;11773;52.570;13.052;2023-04-01T09:53:57;99720.00;;;15.60
23208;BMP180;11773;52.570;13.052;2023-04-01T09:56:42;99714.00;;;15.60
23208;BMP180;11773;52.570;13.052;2023-04-01T10:08:58;99736.00;;;15.50
23208;BMP180;11773;52.570;13.052;2023-04-01T10:23:27;99742.00;;;15.40
23208;BMP180;11773;52.570;13.052;2023-04-01T10:29:33;99761.00;;;15.40
23208;BMP180;11773;52.570;13.052;2023-04-01T10:32:40;99748.00;;;15.30
23208;BMP180;11773;52.570;13.052;2023-04-01T10:38:27;99750.00;;;15.30
23208;BMP180;11773;52.570;13.052;2023-04-01T10:47:13;99766.00;;;15.30
23208;BMP180;11773;52.570;13.052;2023-04-01T10:49:59;99776.00;;;15.30
23208;BMP180;11773;52.570;13.052;2023-04-01T10:52:48;99774.00;;;15.30
23208;BMP180;11773;52.570;13.052;2023-04-01T10:59:01;99788.00;;;15.30
23208;BMP180;11773;52.570;13.052;2023-04-01T11:19:46;99790.00;;;15.20
23208;BMP180;11773;52.570;13.052;2023-04-01T11:29:09;99801.00;;;15.10
23208;BMP180;11773;52.570;13.052;2023-04-01T11:31:47;99803.00;;;15.10
23208;BMP180;11773;52.570;13.052;2023-04-01T11:37:35;99807.00;;;15.10
23208;BMP180;11773;52.570;13.052;2023-04-01T11:40:33;99804.00;;;15.10
23208;BMP180;11773;52.570;13.052;2023-04-01T11:43:29;99829.00;;;15.10
23208;BMP180;11773;52.570;13.052;2023-04-01T11:49:25;99826.00;;;15.00
23208;BMP180;11773;52.570;13.052;2023-04-01T11:52:12;99833.00;;;15.00
23208;BMP180;11773;52.570;13.052;2023-04-01T11:55:06;99827.00;;;15.10
23208;BMP180;11773;52.570;13.052;2023-04-01T11:58:03;99832.00;;;15.10
23208;BMP180;11773;52.570;13.052;2023-04-01T12:00:38;99845.00;;;15.10
23208;BMP180;11773;52.570;13.052;2023-04-01T12:06:45;99845.00;;;15.20
23208;BMP180;11773;52.570;13.052;2023-04-01T12:12:31;99844.00;;;15.10
23208;BMP180;11773;52.570;13.052;2023-04-01T12:15:17;99854.00;;;15.10
23208;BMP180;11773;52.570;13.052;2023-04-01T12:17:56;99872.00;;;15.10
23208;BMP180;11773;52.570;13.052;2023-04-01T12:20:39;99866.00;;;15.00
23208;BMP180;11773;52.570;13.052;2023-04-01T12:23:33;99866.00;;;15.00
23208;BMP180;11773;52.570;13.052;2023-04-01T12:29:33;99868.00;;;14.90
23208;BMP180;11773;52.570;13.052;2023-04-01T12:32:22;99871.00;;;14.90
23208;BMP180;11773;52.570;13.052;2023-04-01T12:35:18;99873.00;;;14.90
23208;BMP180;11773;52.570;13.052;2023-04-01T12:41:09;99879.00;;;14.80
23208;BMP180;11773;52.570;13.052;2023-04-01T12:47:16;99887.00;;;14.70
23208;BMP180;11773;52.570;13.052;2023-04-01T12:50:16;99875.00;;;14.60
23208;BMP180;11773;52.570;13.052;2023-04-01T12:55:49;99892.00;;;14.60
23208;BMP180;11773;52.570;13.052;2023-04-01T13:16:29;99915.00;;;14.60
23208;BMP180;11773;52.570;13.052;2023-04-01T13:19:55;99915.00;;;14.60
23208;BMP180;11773;52.570;13.052;2023-04-01T13:25:24;99941.00;;;14.60
23208;BMP180;11773;52.570;13.052;2023-04-01T13:28:14;99943.00;;;14.50
23208;BMP180;11773;52.570;13.052;2023-04-01T13:31:01;99932.00;;;14.50
23208;BMP180;11773;52.570;13.052;2023-04-01T13:33:49;99938.00;;;14.50
23208;BMP180;11773;52.570;13.052;2023-04-01T13:39:20;99939.00;;;14.40
23208;BMP180;11773;52.570;13.052;2023-04-01T13:42:24;99944.00;;;14.40
23208;BMP180;11773;52.570;13.052;2023-04-01T13:51:18;99952.00;;;14.40
23208;BMP180;11773;52.570;13.052;2023-04-01T13:56:54;99979.00;;;14.30
23208;BMP180;11773;52.570;13.052;2023-04-01T14:02:57;99973.00;;;14.40
23208;BMP180;11773;52.570;13.052;2023-04-01T14:14:18;99999.00;;;14.30
23208;BMP180;11773;52.570;13.052;2023-04-01T14:23:37;100008.00;;;14.30
23208;BMP180;11773;52.570;13.052;2023-04-01T14:26:25;100016.00;;;14.30
23208;BMP180;11773;52.570;13.052;2023-04-01T14:29:14;100013.00;;;14.30
23208;BMP180;11773;52.570;13.052;2023-04-01T14:32:06;100009.00;;;14.30
23208;BMP180;11773;52.570;13.052;2023-04-01T14:34:55;100028.00;;;14.30
23208;BMP180;11773;52.570;13.052;2023-04-01T14:38:04;100018.00;;;14.30
23208;BMP180;11773;52.570;13.052;2023-04-01T14:40:52;100016.00;;;14.20
23208;BMP180;11773;52.570;13.052;2023-04-01T14:43:53;100016.00;;;14.20
23208;BMP180;11773;52.570;13.052;2023-04-01T14:49:41;100024.00;;;14.10
23208;BMP180;11773;52.570;13.052;2023-04-01T14:52:36;100025.00;;;14.10
23208;BMP180;11773;52.570;13.052;2023-04-01T14:55:31;100046.00;;;14.10
23208;BMP180;11773;52.570;13.052;2023-04-01T14:58:14;100040.00;;;14.10
23208;BMP180;11773;52.570;13.052;2023-04-01T15:01:19;100036.00;;;14.00
23208;BMP180;11773;52.570;13.052;2023-04-01T15:04:43;100047.00;;;14.00
23208;BMP180;11773;52.570;13.052;2023-04-01T15:06:51;100068.00;;;13.90
23208;BMP180;11773;52.570;13.052;2023-04-01T15:12:46;100062.00;;;13.80
23208;BMP180;11773;52.570;13.052;2023-04-01T15:18:34;100062.00;;;13.70
23208;BMP180;11773;52.570;13.052;2023-04-01T15:21:27;100068.00;;;13.70
23208;BMP180;11773;52.570;13.052;2023-04-01T15:24:18;100089.00;;;13.60
23208;BMP180;11773;52.570;13.052;2023-04-01T15:30:21;100090.00;;;13.60
23208;BMP180;11773;52.570;13.052;2023-04-01T15:35:55;100094.00;;;13.50
23208;BMP180;11773;52.570;13.052;2023-04-01T15:38:51;100088.00;;;13.50
23208;BMP180;11773;52.570;13.052;2023-04-01T15:58:47;100125.00;;;13.40
23208;BMP180;11773;52.570;13.052;2023-04-01T16:01:44;100133.00;;;13.40
23208;BMP180;11773;52.570;13.052;2023-04-01T16:07:21;100143.00;;;13.40
23208;BMP180;11773;52.570;13.052;2023-04-01T16:10:06;100140.00;;;13.40
23208;BMP180;11773;52.570;13.052;2023-04-01T16:12:48;100147.00;;;13.40
23208;BMP180;11773;52.570;13.052;2023-04-01T16:21:12;100146.00;;;13.30
23208;BMP180;11773;52.570;13.052;2023-04-01T16:24:05;100171.00;;;13.30
23208;BMP180;11773;52.570;13.052;2023-04-01T16:26:44;100164.00;;;13.20
23208;BMP180;11773;52.570;13.052;2023-04-01T16:32:14;100171.00;;;13.20
23208;BMP180;11773;52.570;13.052;2023-04-01T16:34:47;100164.00;;;13.10
23208;BMP180;11773;52.570;13.052;2023-04-01T16:37:40;100180.00;;;13.10
23208;BMP180;11773;52.570;13.052;2023-04-01T16:40:35;100177.00;;;13.10
23208;BMP180;11773;52.570;13.052;2023-04-01T16:43:24;100189.00;;;13.10
23208;BMP180;11773;52.570;13.052;2023-04-01T16:48:58;100199.00;;;13.10
23208;BMP180;11773;52.570;13.052;2023-04-01T16:51:34;100205.00;;;13.00
23208;BMP180;11773;52.570;13.052;2023-04-01T16:56:56;100219.00;;;13.00
23208;BMP180;11773;52.570;13.052;2023-04-01T16:59:34;100227.00;;;12.90
23208;BMP180;11773;52.570;13.052;2023-04-01T17:02:10;100236.00;;;12.90
23208;BMP180;11773;52.570;13.052;2023-04-01T17:04:43;100235.00;;;13.00
23208;BMP180;11773;52.570;13.052;2023-04-01T17:13:50;100251.00;;;12.90
23208;BMP180;11773;52.570;13.052;2023-04-01T17:16:51;100257.00;;;12.80
23208;BMP180;11773;52.570;13.052;2023-04-01T17:22:37;100274.00;;;12.80
23208;BMP180;11773;52.570;13.052;2023-04-01T17:28:34;100271.00;;;12.70
23208;BMP180;11773;52.570;13.052;2023-04-01T17:31:26;100276.00;;;12.60
23208;BMP180;11773;52.570;13.052;2023-04-01T17:34:26;100286.00;;;12.50
23208;BMP180;11773;52.570;13.052;2023-04-01T17:43:28;100314.00;;;12.30
23208;BMP180;11773;52.570;13.052;2023-04-01T17:49:31;100310.00;;;12.20
23208;BMP180;11773;52.570;13.052;2023-04-01T17:52:30;100319.00;;;12.10
23208;BMP180;11773;52.570;13.052;2023-04-01T17:58:28;100330.00;;;12.10
23208;BMP180;11773;52.570;13.052;2023-04-01T18:04:08;100332.00;;;12.10
23208;BMP180;11773;52.570;13.052;2023-04-01T18:07:07;100350.00;;;12.10
23208;BMP180;11773;52.570;13.052;2023-04-01T18:09:55;100361.00;;;12.10
23208;BMP180;11773;52.570;13.052;2023-04-01T18:21:19;100377.00;;;12.00
23208;BMP180;11773;52.570;13.052;2023-04-01T18:24:14;100388.00;;;12.00
23208;BMP180;11773;52.570;13.052;2023-04-01T18:27:22;100393.00;;;11.90
23208;BMP180;11773;52.570;13.052;2023-04-01T18:30:01;100387.00;;;11.90
23208;BMP180;11773;52.570;13.052;2023-04-01T18:32:31;100395.00;;;11.90
23208;BMP180;11773;52.570;13.052;2023-04-01T18:35:34;100397.00;;;11.90
23208;BMP180;11773;52.570;13.052;2023-04-01T18:38:27;100402.00;;;11.80
23208;BMP180;11773;52.570;13.052;2023-04-01T18:41:20;100411.00;;;11.80
23208;BMP180;11773;52.570;13.052;2023-04-01T18:50:00;100434.00;;;11.70
23208;BMP180;11773;52.570;13.052;2023-04-01T18:52:47;100439.00;;;11.80
23208;BMP180;11773;52.570;13.052;2023-04-01T18:55:42;100450.00;;;11.80
23208;BMP180;11773;52.570;13.052;2023-04-01T19:01:52;100448.00;;;11.80
23208;BMP180;11773;52.570;13.052;2023-04-01T19:04:42;100455.00;;;11.80
23208;BMP180;11773;52.570;13.052;2023-04-01T19:07:40;100461.00;;;11.80
23208;BMP180;11773;52.570;13.052;2023-04-01T19:13:39;100459.00;;;11.70
23208;BMP180;11773;52.570;13.052;2023-04-01T19:16:42;100476.00;;;11.60
23208;BMP180;11773;52.570;13.052;2023-04-01T19:19:29;100480.00;;;11.50
23208;BMP180;11773;52.570;13.052;2023-04-01T19:30:57;100495.00;;;11.40
23208;BMP180;11773;52.570;13.052;2023-04-01T19:33:59;100490.00;;;11.40
23208;BMP180;11773;52.570;13.052;2023-04-01T19:37:03;100493.00;;;11.40
23208;BMP180;11773;52.570;13.052;2023-04-01T19:39:48;100511.00;;;11.40
23208;BMP180;11773;52.570;13.052;2023-04-01T19:42:29;100497.00;;;11.30
23208;BMP180;11773;52.570;13.052;2023-04-01T19:45:14;100503.00;;;11.30
23208;BMP180;11773;52.570;13.052;2023-04-01T19:48:11;100512.00;;;11.20
23208;BMP180;11773;52.570;13.052;2023-04-01T19:53:28;100532.00;;;11.20
23208;BMP180;11773;52.570;13.052;2023-04-01T19:56:29;100527.00;;;11.20
23208;BMP180;11773;52.570;13.052;2023-04-01T19:59:17;100531.00;;;11.20
23208;BMP180;11773;52.570;13.052;2023-04-01T20:04:44;100555.00;;;11.10
23208;BMP180;11773;52.570;13.052;2023-04-01T20:07:40;100557.00;;;11.10
23208;BMP180;11773;52.570;13.052;2023-04-01T20:10:18;100557.00;;;11.10
23208;BMP180;11773;52.570;13.052;2023-04-01T20:16:04;100580.00;;;11.00
23208;BMP180;11773;52.570;13.052;2023-04-01T20:18:44;100572.00;;;11.00
23208;BMP180;11773;52.570;13.052;2023-04-01T20:21:43;100578.00;;;11.00
23208;BMP180;11773;52.570;13.052;2023-04-01T20:24:20;100582.00;;;10.90
23208;BMP180;11773;52.570;13.052;2023-04-01T20:30:22;100602.00;;;10.90
23208;BMP180;11773;52.570;13.052;2023-04-01T20:36:34;100608.00;;;10.80
23208;BMP180;11773;52.570;13.052;2023-04-01T20:39:37;100612.00;;;10.80
23208;BMP180;11773;52.570;13.052;2023-04-01T20:42:34;100616.00;;;10.70
23208;BMP180;11773;52.570;13.052;2023-04-01T20:45:45;100621.00;;;10.70